sensor_id;sensor_type;location;lat;lon;timestamp;P1;durP1;ratioP1;P2;durP2;ratioP2
15990;SDS011;8100;50.994;4.538;2023-10-31T00:02:24;9.82;;;6.30;;
15990;SDS011;8100;50.994;4.538;2023-10-31T00:05:11;9.65;;;6.43;;
15990;SDS011;8100;50.994;4.538;2023-10-31T00:07:58;9.88;;;5.82;;
15990;SDS011;8100;50.994;4.538;2023-10-31T00:10:45;11.00;;;6.40;;
15990;SDS011;8100;50.994;4.538;2023-10-31T00:13:33;12.35;;;6.95;;
15990;SDS011;8100;50.994;4.538;2023-10-31T00:16:21;9.45;;;6.38;;
15990;SDS011;8100;50.994;4.538;2023-10-31T00:19:08;9.23;;;6.78;;
15990;SDS011;8100;50.994;4.538;2023-10-31T00:21:56;8.68;;;6.47;;
15990;SDS011;8100;50.994;4.538;2023-10-31T00:24:43;13.23;;;7.30;;
15990;SDS011;8100;50.994;4.538;2023-10-31T00:27:30;12.00;;;6.93;;
15990;SDS011;8100;50.994;4.538;2023-10-31T00:30:17;11.48;;;7.80;;
15990;SDS011;8100;50.994;4.538;2023-10-31T00:33:06;11.40;;;7.50;;
15990;SDS011;8100;50.994;4.538;2023-10-31T00:35:53;10.88;;;7.32;;
15990;SDS011;8100;50.994;4.538;2023-10-31T00:38:40;12.85;;;7.28;;
15990;SDS011;8100;50.994;4.538;2023-10-31T00:41:27;11.02;;;7.30;;
15990;SDS011;8100;50.994;4.538;2023-10-31T00:44:14;11.77;;;6.90;;
15990;SDS011;8100;50.994;4.538;2023-10-31T00:47:01;10.32;;;6.65;;
15990;SDS011;8100;50.994;4.538;2023-10-31T00:49:51;11.23;;;6.97;;
15990;SDS011;8100;50.994;4.538;2023-10-31T00:52:39;11.23;;;7.30;;
15990;SDS011;8100;50.994;4.538;2023-10-31T00:55:26;9.13;;;6.20;;
15990;SDS011;8100;50.994;4.538;2023-10-31T00:58:13;10.52;;;6.35;;
15990;SDS011;8100;50.994;4.538;2023-10-31T01:01:00;10.02;;;6.28;;
15990;SDS011;8100;50.994;4.538;2023-10-31T01:03:48;10.02;;;6.45;;
15990;SDS011;8100;50.994;4.538;2023-10-31T01:06:40;7.72;;;5.35;;
15990;SDS011;8100;50.994;4.538;2023-10-31T01:09:28;8.75;;;5.75;;
15990;SDS011;8100;50.994;4.538;2023-10-31T01:12:15;7.43;;;4.45;;
15990;SDS011;8100;50.994;4.538;2023-10-31T01:15:02;9.57;;;4.90;;
15990;SDS011;8100;50.994;4.538;2023-10-31T01:17:50;7.18;;;5.10;;
15990;SDS011;8100;50.994;4.538;2023-10-31T01:20:37;5.97;;;4.30;;
15990;SDS011;8100;50.994;4.538;2023-10-31T01:23:26;7.25;;;3.63;;
15990;SDS011;8100;50.994;4.538;2023-10-31T01:26:13;5.88;;;3.80;;
15990;SDS011;8100;50.994;4.538;2023-10-31T01:29:00;4.85;;;3.38;;
15990;SDS011;8100;50.994;4.538;2023-10-31T01:31:47;5.07;;;3.80;;
15990;SDS011;8100;50.994;4.538;2023-10-31T01:34:34;8.38;;;3.88;;
15990;SDS011;8100;50.994;4.538;2023-10-31T01:37:22;5.05;;;3.72;;
15990;SDS011;8100;50.994;4.538;2023-10-31T01:40:13;5.63;;;3.60;;
15990;SDS011;8100;50.994;4.538;2023-10-31T01:43:00;5.20;;;3.50;;
15990;SDS011;8100;50.994;4.538;2023-10-31T01:45:47;5.95;;;3.55;;
15990;SDS011;8100;50.994;4.538;2023-10-31T01:48:34;5.80;;;3.63;;
15990;SDS011;8100;50.994;4.538;2023-10-31T01:51:21;4.93;;;2.83;;
15990;SDS011;8100;50.994;4.538;2023-10-31T01:54:09;4.80;;;3.15;;
15990;SDS011;8100;50.994;4.538;2023-10-31T01:56:58;5.10;;;3.10;;
15990;SDS011;8100;50.994;4.538;2023-10-31T01:59:46;5.32;;;2.72;;
15990;SDS011;8100;50.994;4.538;2023-10-31T02:02:33;5.43;;;3.42;;
15990;SDS011;8100;50.994;4.538;2023-10-31T02:05:22;4.15;;;2.83;;
15990;SDS011;8100;50.994;4.538;2023-10-31T02:08:10;5.78;;;3.13;;
15990;SDS011;8100;50.994;4.538;2023-10-31T02:10:57;3.78;;;3.03;;
15990;SDS011;8100;50.994;4.538;2023-10-31T02:13:45;6.05;;;2.97;;
15990;SDS011;8100;50.994;4.538;2023-10-31T02:16:32;5.78;;;3.22;;
15990;SDS011;8100;50.994;4.538;2023-10-31T02:19:20;5.85;;;3.00;;
15990;SDS011;8100;50.994;4.538;2023-10-31T02:22:09;5.28;;;3.40;;
15990;SDS011;8100;50.994;4.538;2023-10-31T02:24:56;5.65;;;3.30;;
15990;SDS011;8100;50.994;4.538;2023-10-31T02:27:43;4.35;;;2.83;;
15990;SDS011;8100;50.994;4.538;2023-10-31T02:30:31;3.25;;;2.80;;
15990;SDS011;8100;50.994;4.538;2023-10-31T02:33:20;5.28;;;3.10;;
15990;SDS011;8100;50.994;4.538;2023-10-31T02:36:08;3.75;;;2.83;;
15990;SDS011;8100;50.994;4.538;2023-10-31T02:38:56;6.25;;;3.20;;
15990;SDS011;8100;50.994;4.538;2023-10-31T02:41:44;5.00;;;3.10;;
15990;SDS011;8100;50.994;4.538;2023-10-31T02:44:31;4.97;;;3.10;;
15990;SDS011;8100;50.994;4.538;2023-10-31T02:47:18;5.57;;;3.00;;
15990;SDS011;8100;50.994;4.538;2023-10-31T02:50:06;6.30;;;3.35;;
15990;SDS011;8100;50.994;4.538;2023-10-31T02:52:53;6.05;;;3.40;;
15990;SDS011;8100;50.994;4.538;2023-10-31T02:55:42;3.70;;;2.92;;
15990;SDS011;8100;50.994;4.538;2023-10-31T02:58:29;5.20;;;3.15;;
15990;SDS011;8100;50.994;4.538;2023-10-31T03:01:17;4.30;;;3.30;;
15990;SDS011;8100;50.994;4.538;2023-10-31T03:04:05;4.15;;;3.20;;
15990;SDS011;8100;50.994;4.538;2023-10-31T03:06:52;5.07;;;3.22;;
15990;SDS011;8100;50.994;4.538;2023-10-31T03:09:40;3.58;;;3.08;;
15990;SDS011;8100;50.994;4.538;2023-10-31T03:12:29;3.88;;;3.28;;
15990;SDS011;8100;50.994;4.538;2023-10-31T03:15:16;5.47;;;3.45;;
15990;SDS011;8100;50.994;4.538;2023-10-31T03:18:03;7.05;;;3.72;;
15990;SDS011;8100;50.994;4.538;2023-10-31T03:20:50;5.80;;;3.50;;
15990;SDS011;8100;50.994;4.538;2023-10-31T03:23:37;5.60;;;3.75;;
15990;SDS011;8100;50.994;4.538;2023-10-31T03:26:25;5.20;;;3.92;;
15990;SDS011;8100;50.994;4.538;2023-10-31T03:29:13;6.07;;;3.78;;
15990;SDS011;8100;50.994;4.538;2023-10-31T03:32:00;7.75;;;3.50;;
15990;SDS011;8100;50.994;4.538;2023-10-31T03:34:48;5.97;;;4.10;;
15990;SDS011;8100;50.994;4.538;2023-10-31T03:37:35;4.55;;;3.42;;
15990;SDS011;8100;50.994;4.538;2023-10-31T03:40:26;4.60;;;3.35;;
15990;SDS011;8100;50.994;4.538;2023-10-31T03:43:14;4.35;;;3.80;;
15990;SDS011;8100;50.994;4.538;2023-10-31T03:46:04;4.53;;;3.30;;
15990;SDS011;8100;50.994;4.538;2023-10-31T03:48:51;4.53;;;3.13;;
15990;SDS011;8100;50.994;4.538;2023-10-31T03:51:38;3.15;;;2.80;;
15990;SDS011;8100;50.994;4.538;2023-10-31T03:54:25;3.95;;;2.80;;
15990;SDS011;8100;50.994;4.538;2023-10-31T03:57:13;4.18;;;2.90;;
15990;SDS011;8100;50.994;4.538;2023-10-31T04:00:00;3.67;;;2.40;;
15990;SDS011;8100;50.994;4.538;2023-10-31T04:02:51;4.95;;;2.70;;
15990;SDS011;8100;50.994;4.538;2023-10-31T04:05:38;3.63;;;2.30;;
15990;SDS011;8100;50.994;4.538;2023-10-31T04:08:26;2.92;;;2.60;;
15990;SDS011;8100;50.994;4.538;2023-10-31T04:11:13;3.88;;;2.67;;
15990;SDS011;8100;50.994;4.538;2023-10-31T04:14:00;3.92;;;2.42;;
15990;SDS011;8100;50.994;4.538;2023-10-31T04:16:47;2.83;;;2.28;;
15990;SDS011;8100;50.994;4.538;2023-10-31T04:19:35;4.47;;;2.83;;
15990;SDS011;8100;50.994;4.538;2023-10-31T04:22:23;3.47;;;2.78;;
15990;SDS011;8100;50.994;4.538;2023-10-31T04:25:10;2.92;;;2.60;;
15990;SDS011;8100;50.994;4.538;2023-10-31T04:27:57;4.05;;;2.80;;
15990;SDS011;8100;50.994;4.538;2023-10-31T04:30:44;3.58;;;2.50;;
15990;SDS011;8100;50.994;4.538;2023-10-31T04:33:32;3.13;;;2.38;;
15990;SDS011;8100;50.994;4.538;2023-10-31T04:36:20;3.55;;;2.50;;
15990;SDS011;8100;50.994;4.538;2023-10-31T04:39:07;3.95;;;2.28;;
15990;SDS011;8100;50.994;4.538;2023-10-31T04:41:55;3.28;;;2.42;;
15990;SDS011;8100;50.994;4.538;2023-10-31T04:44:42;3.88;;;2.42;;
15990;SDS011;8100;50.994;4.538;2023-10-31T04:47:29;4.82;;;2.75;;
15990;SDS011;8100;50.994;4.538;2023-10-31T04:50:16;2.97;;;2.47;;
15990;SDS011;8100;50.994;4.538;2023-10-31T04:53:05;4.15;;;2.47;;
15990;SDS011;8100;50.994;4.538;2023-10-31T04:55:52;4.15;;;2.88;;
15990;SDS011;8100;50.994;4.538;2023-10-31T04:58:39;4.28;;;2.75;;
15990;SDS011;8100;50.994;4.538;2023-10-31T05:01:26;4.13;;;3.00;;
15990;SDS011;8100;50.994;4.538;2023-10-31T05:04:14;4.30;;;3.25;;
15990;SDS011;8100;50.994;4.538;2023-10-31T05:07:01;5.68;;;3.80;;
15990;SDS011;8100;50.994;4.538;2023-10-31T05:09:49;5.90;;;4.20;;
15990;SDS011;8100;50.994;4.538;2023-10-31T05:12:37;5.82;;;4.25;;
15990;SDS011;8100;50.994;4.538;2023-10-31T05:15:24;7.10;;;4.80;;
15990;SDS011;8100;50.994;4.538;2023-10-31T05:18:11;7.85;;;4.78;;
15990;SDS011;8100;50.994;4.538;2023-10-31T05:20:58;5.50;;;4.90;;
15990;SDS011;8100;50.994;4.538;2023-10-31T05:23:46;7.20;;;4.75;;
15990;SDS011;8100;50.994;4.538;2023-10-31T05:26:34;7.20;;;5.20;;
15990;SDS011;8100;50.994;4.538;2023-10-31T05:29:22;8.52;;;4.57;;
15990;SDS011;8100;50.994;4.538;2023-10-31T05:32:09;6.88;;;5.18;;
15990;SDS011;8100;50.994;4.538;2023-10-31T05:34:56;7.50;;;4.78;;
15990;SDS011;8100;50.994;4.538;2023-10-31T05:37:45;7.57;;;4.57;;
15990;SDS011;8100;50.994;4.538;2023-10-31T05:40:32;7.18;;;4.72;;
15990;SDS011;8100;50.994;4.538;2023-10-31T05:43:22;5.55;;;4.35;;
15990;SDS011;8100;50.994;4.538;2023-10-31T05:46:09;5.88;;;4.82;;
15990;SDS011;8100;50.994;4.538;2023-10-31T05:48:59;8.57;;;5.03;;
15990;SDS011;8100;50.994;4.538;2023-10-31T05:51:49;7.25;;;5.20;;
15990;SDS011;8100;50.994;4.538;2023-10-31T05:54:37;8.73;;;5.25;;
15990;SDS011;8100;50.994;4.538;2023-10-31T05:57:24;10.23;;;5.80;;
15990;SDS011;8100;50.994;4.538;2023-10-31T06:00:13;9.27;;;5.10;;
15990;SDS011;8100;50.994;4.538;2023-10-31T06:03:01;7.50;;;4.97;;
15990;SDS011;8100;50.994;4.538;2023-10-31T06:05:48;8.43;;;5.03;;
15990;SDS011;8100;50.994;4.538;2023-10-31T06:08:35;7.10;;;4.88;;
15990;SDS011;8100;50.994;4.538;2023-10-31T06:11:22;8.88;;;5.35;;
15990;SDS011;8100;50.994;4.538;2023-10-31T06:14:10;7.85;;;4.97;;
15990;SDS011;8100;50.994;4.538;2023-10-31T06:16:59;6.18;;;4.68;;
15990;SDS011;8100;50.994;4.538;2023-10-31T06:19:46;6.93;;;5.47;;
15990;SDS011;8100;50.994;4.538;2023-10-31T06:22:34;6.32;;;4.40;;
15990;SDS011;8100;50.994;4.538;2023-10-31T06:25:21;7.40;;;4.50;;
15990;SDS011;8100;50.994;4.538;2023-10-31T06:28:08;5.95;;;4.03;;
15990;SDS011;8100;50.994;4.538;2023-10-31T06:30:55;6.22;;;3.92;;
15990;SDS011;8100;50.994;4.538;2023-10-31T06:33:44;5.50;;;3.70;;
15990;SDS011;8100;50.994;4.538;2023-10-31T06:36:31;8.00;;;3.83;;
15990;SDS011;8100;50.994;4.538;2023-10-31T06:39:18;6.47;;;4.03;;
15990;SDS011;8100;50.994;4.538;2023-10-31T06:42:05;7.00;;;4.15;;
15990;SDS011;8100;50.994;4.538;2023-10-31T06:44:53;6.80;;;3.50;;
15990;SDS011;8100;50.994;4.538;2023-10-31T06:47:40;5.50;;;4.05;;
15990;SDS011;8100;50.994;4.538;2023-10-31T06:50:29;5.00;;;3.90;;
15990;SDS011;8100;50.994;4.538;2023-10-31T06:53:18;7.38;;;4.53;;
15990;SDS011;8100;50.994;4.538;2023-10-31T06:56:05;5.93;;;3.90;;
15990;SDS011;8100;50.994;4.538;2023-10-31T06:58:53;8.02;;;4.53;;
15990;SDS011;8100;50.994;4.538;2023-10-31T07:01:40;7.28;;;4.00;;
15990;SDS011;8100;50.994;4.538;2023-10-31T07:04:28;6.60;;;4.18;;
15990;SDS011;8100;50.994;4.538;2023-10-31T07:07:17;7.97;;;4.05;;
15990;SDS011;8100;50.994;4.538;2023-10-31T07:10:05;6.80;;;4.32;;
15990;SDS011;8100;50.994;4.538;2023-10-31T07:12:52;9.25;;;4.20;;
15990;SDS011;8100;50.994;4.538;2023-10-31T07:15:40;5.05;;;3.80;;
15990;SDS011;8100;50.994;4.538;2023-10-31T07:18:27;7.07;;;4.30;;
15990;SDS011;8100;50.994;4.538;2023-10-31T07:21:14;6.53;;;4.25;;
15990;SDS011;8100;50.994;4.538;2023-10-31T07:24:04;9.27;;;4.43;;
15990;SDS011;8100;50.994;4.538;2023-10-31T07:26:54;8.50;;;4.20;;
15990;SDS011;8100;50.994;4.538;2023-10-31T07:29:41;7.40;;;4.25;;
15990;SDS011;8100;50.994;4.538;2023-10-31T07:32:28;5.40;;;3.72;;
15990;SDS011;8100;50.994;4.538;2023-10-31T07:35:16;8.88;;;4.30;;
15990;SDS011;8100;50.994;4.538;2023-10-31T07:38:05;5.97;;;3.70;;
15990;SDS011;8100;50.994;4.538;2023-10-31T07:40:54;5.18;;;3.53;;
15990;SDS011;8100;50.994;4.538;2023-10-31T07:43:41;6.32;;;4.13;;
15990;SDS011;8100;50.994;4.538;2023-10-31T07:46:28;5.78;;;3.90;;
15990;SDS011;8100;50.994;4.538;2023-10-31T07:49:16;5.25;;;3.72;;
15990;SDS011;8100;50.994;4.538;2023-10-31T07:52:03;6.15;;;3.47;;
15990;SDS011;8100;50.994;4.538;2023-10-31T07:54:51;6.60;;;3.50;;
15990;SDS011;8100;50.994;4.538;2023-10-31T07:57:39;5.00;;;3.03;;
15990;SDS011;8100;50.994;4.538;2023-10-31T08:00:26;5.13;;;3.20;;
15990;SDS011;8100;50.994;4.538;2023-10-31T08:03:14;6.32;;;3.75;;
15990;SDS011;8100;50.994;4.538;2023-10-31T08:06:02;7.85;;;3.25;;
15990;SDS011;8100;50.994;4.538;2023-10-31T08:08:51;6.15;;;2.97;;
15990;SDS011;8100;50.994;4.538;2023-10-31T08:11:39;4.63;;;2.95;;
15990;SDS011;8100;50.994;4.538;2023-10-31T08:14:27;5.43;;;3.00;;
15990;SDS011;8100;50.994;4.538;2023-10-31T08:17:14;5.85;;;3.22;;
15990;SDS011;8100;50.994;4.538;2023-10-31T08:20:02;6.57;;;3.05;;
15990;SDS011;8100;50.994;4.538;2023-10-31T08:22:49;3.90;;;2.80;;
15990;SDS011;8100;50.994;4.538;2023-10-31T08:25:37;7.30;;;3.03;;
15990;SDS011;8100;50.994;4.538;2023-10-31T08:28:24;3.88;;;2.58;;
15990;SDS011;8100;50.994;4.538;2023-10-31T08:31:12;6.63;;;3.13;;
15990;SDS011;8100;50.994;4.538;2023-10-31T08:34:00;4.28;;;2.63;;
15990;SDS011;8100;50.994;4.538;2023-10-31T08:36:48;5.28;;;2.55;;
15990;SDS011;8100;50.994;4.538;2023-10-31T08:39:35;4.95;;;2.53;;
15990;SDS011;8100;50.994;4.538;2023-10-31T08:42:22;4.13;;;2.47;;
15990;SDS011;8100;50.994;4.538;2023-10-31T08:45:09;4.55;;;2.20;;
15990;SDS011;8100;50.994;4.538;2023-10-31T08:47:58;4.07;;;2.45;;
15990;SDS011;8100;50.994;4.538;2023-10-31T08:50:45;2.95;;;2.15;;
15990;SDS011;8100;50.994;4.538;2023-10-31T08:53:34;3.97;;;2.55;;
15990;SDS011;8100;50.994;4.538;2023-10-31T08:56:21;6.72;;;3.28;;
15990;SDS011;8100;50.994;4.538;2023-10-31T08:59:08;4.97;;;2.67;;
15990;SDS011;8100;50.994;4.538;2023-10-31T09:01:56;4.32;;;2.00;;
15990;SDS011;8100;50.994;4.538;2023-10-31T09:04:44;3.67;;;2.15;;
15990;SDS011;8100;50.994;4.538;2023-10-31T09:07:31;5.10;;;2.22;;
15990;SDS011;8100;50.994;4.538;2023-10-31T09:10:19;3.53;;;2.00;;
15990;SDS011;8100;50.994;4.538;2023-10-31T09:13:06;2.85;;;2.00;;
15990;SDS011;8100;50.994;4.538;2023-10-31T09:15:53;2.85;;;2.20;;
15990;SDS011;8100;50.994;4.538;2023-10-31T09:18:40;3.33;;;2.03;;
15990;SDS011;8100;50.994;4.538;2023-10-31T09:21:30;2.72;;;1.85;;
15990;SDS011;8100;50.994;4.538;2023-10-31T09:24:17;5.47;;;2.13;;
15990;SDS011;8100;50.994;4.538;2023-10-31T09:27:04;4.32;;;1.95;;
15990;SDS011;8100;50.994;4.538;2023-10-31T09:29:52;2.13;;;1.90;;
15990;SDS011;8100;50.994;4.538;2023-10-31T09:32:39;4.65;;;1.88;;
15990;SDS011;8100;50.994;4.538;2023-10-31T09:35:26;2.58;;;1.90;;
15990;SDS011;8100;50.994;4.538;2023-10-31T09:38:15;4.75;;;1.90;;
15990;SDS011;8100;50.994;4.538;2023-10-31T09:41:02;5.55;;;2.10;;
15990;SDS011;8100;50.994;4.538;2023-10-31T09:43:51;3.53;;;1.65;;
15990;SDS011;8100;50.994;4.538;2023-10-31T09:46:38;2.42;;;1.77;;
15990;SDS011;8100;50.994;4.538;2023-10-31T09:49:26;2.65;;;1.73;;
15990;SDS011;8100;50.994;4.538;2023-10-31T09:52:14;2.25;;;1.80;;
15990;SDS011;8100;50.994;4.538;2023-10-31T09:55:04;2.10;;;1.63;;
15990;SDS011;8100;50.994;4.538;2023-10-31T09:57:53;2.85;;;1.45;;
15990;SDS011;8100;50.994;4.538;2023-10-31T10:00:40;3.55;;;2.00;;
15990;SDS011;8100;50.994;4.538;2023-10-31T10:03:28;2.83;;;1.90;;
15990;SDS011;8100;50.994;4.538;2023-10-31T10:06:15;3.25;;;1.73;;
15990;SDS011;8100;50.994;4.538;2023-10-31T10:09:06;2.88;;;1.60;;
15990;SDS011;8100;50.994;4.538;2023-10-31T10:11:55;2.63;;;1.73;;
15990;SDS011;8100;50.994;4.538;2023-10-31T10:14:44;3.53;;;1.70;;
15990;SDS011;8100;50.994;4.538;2023-10-31T10:17:32;5.00;;;1.60;;
15990;SDS011;8100;50.994;4.538;2023-10-31T10:20:19;2.60;;;1.50;;
15990;SDS011;8100;50.994;4.538;2023-10-31T10:23:07;6.90;;;1.88;;
15990;SDS011;8100;50.994;4.538;2023-10-31T10:25:54;3.05;;;1.60;;
15990;SDS011;8100;50.994;4.538;2023-10-31T10:28:44;3.47;;;1.80;;
15990;SDS011;8100;50.994;4.538;2023-10-31T10:31:34;4.22;;;2.00;;
15990;SDS011;8100;50.994;4.538;2023-10-31T10:34:21;4.38;;;1.77;;
15990;SDS011;8100;50.994;4.538;2023-10-31T10:37:08;3.05;;;1.70;;
15990;SDS011;8100;50.994;4.538;2023-10-31T10:39:56;3.65;;;1.98;;
15990;SDS011;8100;50.994;4.538;2023-10-31T10:42:45;1.92;;;1.70;;
15990;SDS011;8100;50.994;4.538;2023-10-31T10:45:35;6.28;;;2.00;;
15990;SDS011;8100;50.994;4.538;2023-10-31T10:48:25;5.45;;;2.22;;
15990;SDS011;8100;50.994;4.538;2023-10-31T10:51:13;5.38;;;2.00;;
15990;SDS011;8100;50.994;4.538;2023-10-31T10:54:08;3.15;;;1.73;;
15990;SDS011;8100;50.994;4.538;2023-10-31T10:56:59;3.30;;;2.03;;
15990;SDS011;8100;50.994;4.538;2023-10-31T10:59:55;2.95;;;1.73;;
15990;SDS011;8100;50.994;4.538;2023-10-31T11:02:50;4.63;;;2.03;;
15990;SDS011;8100;50.994;4.538;2023-10-31T11:05:38;6.93;;;1.90;;
15990;SDS011;8100;50.994;4.538;2023-10-31T11:08:27;6.15;;;1.90;;
15990;SDS011;8100;50.994;4.538;2023-10-31T11:11:17;2.70;;;1.55;;
15990;SDS011;8100;50.994;4.538;2023-10-31T11:14:06;4.90;;;1.67;;
15990;SDS011;8100;50.994;4.538;2023-10-31T11:16:55;5.88;;;1.95;;
15990;SDS011;8100;50.994;4.538;2023-10-31T11:19:46;8.80;;;1.80;;
15990;SDS011;8100;50.994;4.538;2023-10-31T11:22:37;6.80;;;1.77;;
15990;SDS011;8100;50.994;4.538;2023-10-31T11:25:25;6.03;;;1.88;;
15990;SDS011;8100;50.994;4.538;2023-10-31T11:28:13;5.65;;;2.13;;
15990;SDS011;8100;50.994;4.538;2023-10-31T11:31:02;2.42;;;1.50;;
15990;SDS011;8100;50.994;4.538;2023-10-31T11:33:49;4.05;;;1.63;;
15990;SDS011;8100;50.994;4.538;2023-10-31T11:36:39;6.57;;;1.67;;
15990;SDS011;8100;50.994;4.538;2023-10-31T11:39:27;3.15;;;1.60;;
15990;SDS011;8100;50.994;4.538;2023-10-31T11:42:17;4.13;;;1.70;;
15990;SDS011;8100;50.994;4.538;2023-10-31T11:45:05;5.53;;;2.15;;
15990;SDS011;8100;50.994;4.538;2023-10-31T11:47:54;5.72;;;2.00;;
15990;SDS011;8100;50.994;4.538;2023-10-31T11:50:42;4.43;;;2.03;;
15990;SDS011;8100;50.994;4.538;2023-10-31T11:53:31;9.02;;;3.00;;
15990;SDS011;8100;50.994;4.538;2023-10-31T11:56:18;7.53;;;3.63;;
15990;SDS011;8100;50.994;4.538;2023-10-31T11:59:06;9.45;;;3.17;;
15990;SDS011;8100;50.994;4.538;2023-10-31T12:01:53;12.05;;;4.25;;
15990;SDS011;8100;50.994;4.538;2023-10-31T12:04:41;7.55;;;3.88;;
15990;SDS011;8100;50.994;4.538;2023-10-31T12:07:28;8.55;;;4.32;;
15990;SDS011;8100;50.994;4.538;2023-10-31T12:10:22;8.18;;;4.50;;
15990;SDS011;8100;50.994;4.538;2023-10-31T12:13:12;8.13;;;4.30;;
15990;SDS011;8100;50.994;4.538;2023-10-31T12:15:59;11.02;;;4.50;;
15990;SDS011;8100;50.994;4.538;2023-10-31T12:18:53;8.45;;;4.40;;
15990;SDS011;8100;50.994;4.538;2023-10-31T12:21:41;9.55;;;4.38;;
15990;SDS011;8100;50.994;4.538;2023-10-31T12:24:32;10.02;;;4.30;;
15990;SDS011;8100;50.994;4.538;2023-10-31T12:27:21;7.10;;;4.03;;
15990;SDS011;8100;50.994;4.538;2023-10-31T12:30:08;8.85;;;3.85;;
15990;SDS011;8100;50.994;4.538;2023-10-31T12:32:56;6.88;;;3.55;;
15990;SDS011;8100;50.994;4.538;2023-10-31T12:35:43;8.13;;;3.70;;
15990;SDS011;8100;50.994;4.538;2023-10-31T12:38:31;5.45;;;3.20;;
15990;SDS011;8100;50.994;4.538;2023-10-31T12:41:19;7.20;;;3.10;;
15990;SDS011;8100;50.994;4.538;2023-10-31T12:44:07;7.18;;;2.90;;
15990;SDS011;8100;50.994;4.538;2023-10-31T12:46:56;6.60;;;2.90;;
15990;SDS011;8100;50.994;4.538;2023-10-31T12:49:43;3.85;;;2.50;;
15990;SDS011;8100;50.994;4.538;2023-10-31T12:52:44;5.50;;;2.55;;
15990;SDS011;8100;50.994;4.538;2023-10-31T12:55:37;4.78;;;2.45;;
15990;SDS011;8100;50.994;4.538;2023-10-31T12:58:25;4.07;;;2.40;;
15990;SDS011;8100;50.994;4.538;2023-10-31T13:01:14;3.28;;;2.05;;
15990;SDS011;8100;50.994;4.538;2023-10-31T13:04:02;4.55;;;2.03;;
15990;SDS011;8100;50.994;4.538;2023-10-31T13:06:54;5.05;;;2.22;;
15990;SDS011;8100;50.994;4.538;2023-10-31T13:09:42;5.20;;;2.08;;
15990;SDS011;8100;50.994;4.538;2023-10-31T13:12:32;6.07;;;2.35;;
15990;SDS011;8100;50.994;4.538;2023-10-31T13:15:19;5.25;;;2.10;;
15990;SDS011;8100;50.994;4.538;2023-10-31T13:18:10;3.17;;;1.60;;
15990;SDS011;8100;50.994;4.538;2023-10-31T13:20:59;3.80;;;1.90;;
15990;SDS011;8100;50.994;4.538;2023-10-31T13:23:46;3.47;;;1.88;;
15990;SDS011;8100;50.994;4.538;2023-10-31T13:26:33;5.65;;;2.03;;
15990;SDS011;8100;50.994;4.538;2023-10-31T13:29:21;4.47;;;2.30;;
15990;SDS011;8100;50.994;4.538;2023-10-31T13:32:10;3.55;;;1.85;;
15990;SDS011;8100;50.994;4.538;2023-10-31T13:34:59;2.90;;;1.48;;
15990;SDS011;8100;50.994;4.538;2023-10-31T13:37:46;2.20;;;1.50;;
15990;SDS011;8100;50.994;4.538;2023-10-31T13:40:34;4.85;;;1.50;;
15990;SDS011;8100;50.994;4.538;2023-10-31T13:43:21;2.58;;;1.65;;
15990;SDS011;8100;50.994;4.538;2023-10-31T13:46:08;2.30;;;1.40;;
15990;SDS011;8100;50.994;4.538;2023-10-31T13:48:55;3.60;;;1.30;;
15990;SDS011;8100;50.994;4.538;2023-10-31T13:51:46;2.60;;;1.63;;
15990;SDS011;8100;50.994;4.538;2023-10-31T13:54:34;3.03;;;1.35;;
15990;SDS011;8100;50.994;4.538;2023-10-31T13:57:22;2.72;;;1.30;;
15990;SDS011;8100;50.994;4.538;2023-10-31T14:00:09;2.10;;;1.30;;
15990;SDS011;8100;50.994;4.538;2023-10-31T14:02:57;5.32;;;1.80;;
15990;SDS011;8100;50.994;4.538;2023-10-31T14:05:45;2.20;;;1.60;;
15990;SDS011;8100;50.994;4.538;2023-10-31T14:08:33;4.35;;;1.67;;
15990;SDS011;8100;50.994;4.538;2023-10-31T14:11:20;2.22;;;1.50;;
15990;SDS011;8100;50.994;4.538;2023-10-31T14:14:08;2.80;;;1.88;;
15990;SDS011;8100;50.994;4.538;2023-10-31T14:16:58;3.60;;;1.80;;
15990;SDS011;8100;50.994;4.538;2023-10-31T14:19:45;2.97;;;1.92;;
15990;SDS011;8100;50.994;4.538;2023-10-31T14:22:32;5.22;;;2.00;;
15990;SDS011;8100;50.994;4.538;2023-10-31T14:25:21;5.13;;;1.90;;
15990;SDS011;8100;50.994;4.538;2023-10-31T14:28:08;5.05;;;1.98;;
15990;SDS011;8100;50.994;4.538;2023-10-31T14:30:55;2.38;;;1.70;;
15990;SDS011;8100;50.994;4.538;2023-10-31T14:33:43;4.10;;;1.80;;
15990;SDS011;8100;50.994;4.538;2023-10-31T14:36:31;2.40;;;1.70;;
15990;SDS011;8100;50.994;4.538;2023-10-31T14:39:18;3.55;;;1.58;;
15990;SDS011;8100;50.994;4.538;2023-10-31T14:42:07;4.13;;;1.55;;
15990;SDS011;8100;50.994;4.538;2023-10-31T14:44:55;4.43;;;1.80;;
15990;SDS011;8100;50.994;4.538;2023-10-31T14:47:43;4.28;;;1.90;;
15990;SDS011;8100;50.994;4.538;2023-10-31T14:50:30;3.53;;;1.60;;
15990;SDS011;8100;50.994;4.538;2023-10-31T14:53:17;2.92;;;1.45;;
15990;SDS011;8100;50.994;4.538;2023-10-31T14:56:06;3.55;;;1.65;;
15990;SDS011;8100;50.994;4.538;2023-10-31T14:58:55;4.32;;;1.63;;
15990;SDS011;8100;50.994;4.538;2023-10-31T15:01:42;6.90;;;1.50;;
15990;SDS011;8100;50.994;4.538;2023-10-31T15:04:29;5.43;;;1.63;;
15990;SDS011;8100;50.994;4.538;2023-10-31T15:07:17;2.45;;;1.48;;
15990;SDS011;8100;50.994;4.538;2023-10-31T15:10:04;2.67;;;1.50;;
15990;SDS011;8100;50.994;4.538;2023-10-31T15:12:52;2.05;;;1.35;;
15990;SDS011;8100;50.994;4.538;2023-10-31T15:15:41;3.75;;;1.50;;
15990;SDS011;8100;50.994;4.538;2023-10-31T15:18:28;5.03;;;1.60;;
15990;SDS011;8100;50.994;4.538;2023-10-31T15:21:16;2.35;;;1.30;;
15990;SDS011;8100;50.994;4.538;2023-10-31T15:24:03;2.88;;;1.67;;
15990;SDS011;8100;50.994;4.538;2023-10-31T15:26:53;4.20;;;1.70;;
15990;SDS011;8100;50.994;4.538;2023-10-31T15:29:41;3.03;;;1.67;;
15990;SDS011;8100;50.994;4.538;2023-10-31T15:32:29;1.80;;;1.33;;
15990;SDS011;8100;50.994;4.538;2023-10-31T15:35:17;2.92;;;1.33;;
15990;SDS011;8100;50.994;4.538;2023-10-31T15:38:04;4.13;;;1.55;;
15990;SDS011;8100;50.994;4.538;2023-10-31T15:40:51;7.00;;;3.20;;
15990;SDS011;8100;50.994;4.538;2023-10-31T15:43:39;6.68;;;3.25;;
15990;SDS011;8100;50.994;4.538;2023-10-31T15:46:26;11.85;;;3.13;;
15990;SDS011;8100;50.994;4.538;2023-10-31T15:49:14;11.95;;;3.75;;
15990;SDS011;8100;50.994;4.538;2023-10-31T15:52:02;5.25;;;2.58;;
15990;SDS011;8100;50.994;4.538;2023-10-31T15:54:50;4.63;;;2.40;;
15990;SDS011;8100;50.994;4.538;2023-10-31T15:57:37;4.50;;;1.80;;
15990;SDS011;8100;50.994;4.538;2023-10-31T16:00:24;3.67;;;1.40;;
15990;SDS011;8100;50.994;4.538;2023-10-31T16:03:12;3.58;;;1.73;;
15990;SDS011;8100;50.994;4.538;2023-10-31T16:06:01;3.33;;;1.85;;
15990;SDS011;8100;50.994;4.538;2023-10-31T16:08:49;7.10;;;2.10;;
15990;SDS011;8100;50.994;4.538;2023-10-31T16:11:36;3.47;;;1.70;;
15990;SDS011;8100;50.994;4.538;2023-10-31T16:14:24;4.72;;;1.88;;
15990;SDS011;8100;50.994;4.538;2023-10-31T16:17:11;4.93;;;2.10;;
15990;SDS011;8100;50.994;4.538;2023-10-31T16:20:00;3.40;;;2.20;;
15990;SDS011;8100;50.994;4.538;2023-10-31T16:22:59;7.68;;;2.58;;
15990;SDS011;8100;50.994;4.538;2023-10-31T16:25:48;6.22;;;2.60;;
15990;SDS011;8100;50.994;4.538;2023-10-31T16:28:38;3.97;;;2.55;;
15990;SDS011;8100;50.994;4.538;2023-10-31T16:31:29;7.47;;;2.72;;
15990;SDS011;8100;50.994;4.538;2023-10-31T16:34:23;5.63;;;2.90;;
15990;SDS011;8100;50.994;4.538;2023-10-31T16:37:13;8.73;;;2.90;;
15990;SDS011;8100;50.994;4.538;2023-10-31T16:40:03;7.18;;;2.90;;
15990;SDS011;8100;50.994;4.538;2023-10-31T16:42:52;8.13;;;2.85;;
15990;SDS011;8100;50.994;4.538;2023-10-31T16:45:41;6.47;;;2.85;;
15990;SDS011;8100;50.994;4.538;2023-10-31T16:48:29;5.70;;;2.78;;
15990;SDS011;8100;50.994;4.538;2023-10-31T16:51:17;6.47;;;2.75;;
15990;SDS011;8100;50.994;4.538;2023-10-31T16:54:05;6.43;;;3.08;;
15990;SDS011;8100;50.994;4.538;2023-10-31T16:56:54;7.35;;;2.90;;
15990;SDS011;8100;50.994;4.538;2023-10-31T16:59:41;7.75;;;2.88;;
15990;SDS011;8100;50.994;4.538;2023-10-31T17:02:29;7.68;;;2.70;;
15990;SDS011;8100;50.994;4.538;2023-10-31T17:05:16;7.03;;;3.40;;
15990;SDS011;8100;50.994;4.538;2023-10-31T17:08:04;7.80;;;3.28;;